Time;durP1;ratioP1;P1;durP2;ratioP2;P2;SDS_P1;SDS_P2;PMS_P1;PMS_P2;Temp;Humidity;BMP_temperature;BMP_pressure;BME280_temperature;BME280_humidity;BME280_pressure;Samples;Min_cycle;Max_cycle;Signal;HPM_P1;HPM_P2
2022/03/29 00:01:25;;;;;;;10.70;5.80;;;;;;;9.80;44.15;96227.41;108104;1270;35051;-75
2022/03/29 00:03:55;;;;;;;10.30;5.80;;;;;;;9.81;44.27;96219.40;108102;1270;29994;-75
2022/03/29 00:06:26;;;;;;;9.40;5.70;;;;;;;9.83;44.32;96214.67;108048;1270;31734;-75
2022/03/29 00:08:58;;;;;;;10.70;6.00;;;;;;;9.82;44.36;96211.29;107942;1272;55217;-75
2022/03/29 00:11:29;;;;;;;11.90;6.30;;;;;;;9.86;44.56;96206.80;108109;1270;32131;-75
2022/03/29 00:14:02;;;;;;;10.80;6.60;;;;;;;9.89;44.60;96199.58;108088;1270;37050;-74
2022/03/29 00:16:33;;;;;;;12.00;6.40;;;;;;;9.91;44.58;96197.95;107986;1272;31430;-74
2022/03/29 00:19:03;;;;;;;12.50;6.20;;;;;;;9.93;44.87;96192.69;108061;1270;42078;-74
2022/03/29 00:21:37;;;;;;;9.10;5.60;;;;;;;9.96;44.92;96185.39;108030;1270;31356;-75
2022/03/29 00:24:08;;;;;;;10.00;6.20;;;;;;;9.95;44.78;96185.08;108053;1270;39231;-75
2022/03/29 00:26:39;;;;;;;9.20;4.90;;;;;;;9.95;44.92;96176.30;108097;1270;31346;-75
2022/03/29 00:29:10;;;;;;;10.70;6.50;;;;;;;9.93;45.01;96174.41;108090;1270;51123;-74
2022/03/29 00:31:41;;;;;;;8.80;5.40;;;;;;;9.92;45.13;96171.79;108098;1270;43169;-74
2022/03/29 00:34:11;;;;;;;7.90;4.90;;;;;;;9.92;45.33;96163.89;108084;1270;184943;-75
2022/03/29 00:36:42;;;;;;;9.80;5.50;;;;;;;9.90;45.37;96160.58;108148;1269;35518;-75
2022/03/29 00:39:13;;;;;;;12.00;6.60;;;;;;;9.86;45.68;96155.40;108164;1270;45084;-75
2022/03/29 00:41:42;;;;;;;;;;;;;;;9.86;45.85;96152.22;108161;1270;31245;-75
2022/03/29 00:44:14;;;;;;;7.90;5.30;;;;;;;9.86;45.83;96148.04;108085;1270;42124;-74
2022/03/29 00:46:47;;;;;;;9.00;5.10;;;;;;;9.82;46.05;96144.63;108115;1270;40232;-74
2022/03/29 00:49:18;;;;;;;7.90;5.30;;;;;;;9.75;46.36;96143.57;107994;1270;44361;-74
2022/03/29 00:51:49;;;;;;;9.70;6.20;;;;;;;9.66;46.60;96138.58;108030;1271;41151;-75
2022/03/29 00:54:20;;;;;;;9.10;6.20;;;;;;;9.55;46.83;96136.02;108035;1270;40037;-75
2022/03/29 00:56:51;;;;;;;10.10;4.80;;;;;;;9.47;46.90;96133.16;108069;1270;41006;-75
2022/03/29 00:59:22;;;;;;;8.60;5.40;;;;;;;9.43;47.37;96133.30;108125;1270;33507;-75
2022/03/29 01:01:53;;;;;;;12.10;5.80;;;;;;;9.41;47.53;96128.49;108072;1270;36442;-75
2022/03/29 01:04:22;;;;;;;;;;;;;;;9.37;47.90;96125.69;108053;1270;32920;-75
2022/03/29 01:06:53;;;;;;;9.80;5.80;;;;;;;9.36;48.21;96124.66;108128;1270;29723;-75
2022/03/29 01:09:24;;;;;;;10.70;6.20;;;;;;;9.39;48.40;96122.33;108054;1271;30341;-75
2022/03/29 01:11:55;;;;;;;9.40;5.90;;;;;;;9.45;48.53;96112.37;108108;1270;37160;-75
2022/03/29 01:14:27;;;;;;;8.40;5.90;;;;;;;9.53;48.83;96108.20;108105;1270;33734;-75
2022/03/29 01:19:48;;;;;;;10.60;6.50;;;;;;;9.50;48.51;96103.36;108052;1270;32884;-75
2022/03/29 01:22:19;;;;;;;7.60;5.10;;;;;;;9.45;48.56;96101.55;108013;1270;33506;-74
2022/03/29 01:24:51;;;;;;;10.70;6.60;;;;;;;9.41;49.28;96094.10;108072;1270;35021;-75
2022/03/29 01:27:24;;;;;;;9.30;5.80;;;;;;;9.40;49.30;96092.42;108063;1270;33743;-75
2022/03/29 01:29:59;;;;;;;10.10;6.60;;;;;;;9.34;49.20;96095.46;108134;1269;33236;-75
2022/03/29 01:32:31;;;;;;;7.70;5.00;;;;;;;9.30;49.12;96092.77;107983;1271;44173;-74
2022/03/29 01:35:02;;;;;;;9.50;5.80;;;;;;;9.26;49.61;96095.45;108056;1270;34515;-74
2022/03/29 01:37:32;;;;;;;8.80;5.50;;;;;;;9.23;49.58;96085.70;108080;1270;44640;-74
2022/03/29 01:40:07;;;;;;;10.90;6.20;;;;;;;9.29;49.88;96071.35;108025;1270;43908;-75
2022/03/29 01:42:38;;;;;;;10.80;6.70;;;;;;;9.38;49.96;96069.70;108121;1270;31387;-74
2022/03/29 01:45:10;;;;;;;9.90;5.70;;;;;;;9.46;50.03;96056.54;108117;1270;38044;-75
2022/03/29 01:47:41;;;;;;;9.50;5.60;;;;;;;9.51;50.00;96059.06;108078;1270;42550;-74
2022/03/29 01:50:13;;;;;;;9.00;5.80;;;;;;;9.51;50.05;96057.21;108133;1270;41558;-74
2022/03/29 01:52:46;;;;;;;10.00;6.40;;;;;;;9.53;50.06;96058.02;108148;1271;43284;-74
2022/03/29 01:55:19;;;;;;;8.00;5.70;;;;;;;9.57;50.40;96057.31;108102;1270;43102;-75
2022/03/29 01:57:53;;;;;;;9.80;6.20;;;;;;;9.60;50.33;96056.95;108017;1270;33743;-74
2022/03/29 02:00:34;;;;;;;10.30;6.20;;;;;;;9.60;50.57;96063.58;108061;1270;34170;-74
2022/03/29 02:03:06;;;;;;;7.10;5.10;;;;;;;9.55;51.14;96083.66;108088;1268;27575;-74
2022/03/29 02:05:37;;;;;;;11.60;5.70;;;;;;;9.60;51.55;96090.97;108106;1270;36721;-74
2022/03/29 02:08:09;;;;;;;11.30;6.60;;;;;;;9.93;51.54;96094.13;108055;1270;33079;-74
2022/03/29 02:10:41;;;;;;;8.90;5.50;;;;;;;10.25;50.99;96092.73;108034;1270;43181;-74
2022/03/29 02:13:12;;;;;;;9.90;6.70;;;;;;;10.44;50.56;96096.91;108065;1270;44806;-74
2022/03/29 02:15:43;;;;;;;10.30;6.40;;;;;;;10.52;50.27;96100.12;108117;1270;33920;-74
2022/03/29 02:18:13;;;;;;;10.70;6.60;;;;;;;10.49;49.94;96089.08;108078;1270;46169;-74
2022/03/29 02:20:44;;;;;;;12.10;6.70;;;;;;;10.45;49.74;96089.11;108028;1271;40409;-74
2022/03/29 02:23:15;;;;;;;12.40;6.60;;;;;;;10.39;49.67;96090.45;108161;1270;33185;-74
2022/03/29 02:25:47;;;;;;;11.00;6.80;;;;;;;10.36;49.76;96086.11;108124;1269;35991;-74
2022/03/29 02:28:18;;;;;;;10.20;6.20;;;;;;;10.36;49.96;96082.19;108106;1270;32070;-74
2022/03/29 02:30:49;;;;;;;10.00;6.70;;;;;;;10.46;50.08;96085.27;108096;1270;40764;-75
2022/03/29 02:33:20;;;;;;;11.70;7.30;;;;;;;10.52;50.13;96088.13;108098;1270;28629;-74
2022/03/29 02:35:51;;;;;;;9.60;5.70;;;;;;;10.53;49.93;96092.56;108061;1270;42773;-74
2022/03/29 02:38:21;;;;;;;10.60;6.70;;;;;;;10.43;49.91;96098.66;108059;1270;43757;-74
2022/03/29 02:40:57;;;;;;;11.80;7.30;;;;;;;10.33;50.14;96097.35;108011;1270;39598;-74
2022/03/29 02:43:29;;;;;;;14.30;9.10;;;;;;;10.31;50.90;96099.07;108031;1270;38220;-74
2022/03/29 02:45:59;;;;;;;13.10;7.70;;;;;;;10.37;51.87;96094.20;108069;1269;44576;-74
2022/03/29 02:48:31;;;;;;;15.70;10.50;;;;;;;10.54;53.28;96091.18;108089;1270;36425;-74
2022/03/29 02:51:02;;;;;;;15.00;11.20;;;;;;;10.68;53.30;96083.98;108066;1270;40209;-74
2022/03/29 02:53:33;;;;;;;13.00;8.10;;;;;;;10.75;53.15;96081.18;108022;1270;38355;-74
2022/03/29 02:56:05;;;;;;;12.10;7.70;;;;;;;10.65;51.80;96085.85;108089;1270;41139;-74
2022/03/29 02:58:36;;;;;;;12.30;7.20;;;;;;;10.50;51.47;96092.09;108055;1270;45362;-74
2022/03/29 03:01:07;;;;;;;12.10;7.10;;;;;;;10.42;51.41;96098.80;108040;1270;34761;-74
2022/03/29 03:03:38;;;;;;;12.40;7.30;;;;;;;10.34;51.65;96104.27;108063;1270;31355;-74
2022/03/29 03:06:10;;;;;;;12.10;8.50;;;;;;;10.26;51.88;96100.73;108118;1270;40645;-74
2022/03/29 03:08:41;;;;;;;13.20;9.00;;;;;;;10.22;52.96;96099.36;108086;1270;34782;-74
2022/03/29 03:11:12;;;;;;;16.50;9.10;;;;;;;10.30;55.22;96100.89;108106;1270;41723;-74
2022/03/29 03:13:43;;;;;;;14.20;9.90;;;;;;;10.44;56.13;96100.04;108145;1270;43181;-74
2022/03/29 03:16:14;;;;;;;17.20;11.10;;;;;;;10.52;56.62;96101.12;108103;1270;45938;-74
2022/03/29 03:18:45;;;;;;;15.70;11.50;;;;;;;10.49;58.33;96088.08;108001;1271;27620;-74
2022/03/29 03:21:16;;;;;;;19.00;12.20;;;;;;;10.38;59.01;96074.52;108121;1270;30171;-74
2022/03/29 03:23:48;;;;;;;18.50;12.80;;;;;;;10.26;59.40;96072.92;108088;1270;32180;-74
2022/03/29 03:26:19;;;;;;;13.60;10.40;;;;;;;10.15;59.59;96070.52;107963;1270;30555;-74
2022/03/29 03:28:50;;;;;;;15.00;10.90;;;;;;;10.07;59.56;96070.36;108103;1270;37906;-74
2022/03/29 03:31:21;;;;;;;15.00;10.50;;;;;;;10.02;59.55;96072.51;108075;1270;42338;-74
2022/03/29 03:33:52;;;;;;;14.90;10.80;;;;;;;9.92;59.41;96068.00;108049;1270;58019;-74
2022/03/29 03:36:24;;;;;;;14.70;10.30;;;;;;;9.84;59.60;96062.33;108062;1270;51268;-74
2022/03/29 03:38:55;;;;;;;14.50;10.80;;;;;;;9.71;60.06;96057.06;108123;1270;31537;-74
2022/03/29 03:41:26;;;;;;;17.60;12.30;;;;;;;9.58;60.68;96053.05;108108;1270;33073;-74
2022/03/29 03:43:57;;;;;;;19.20;12.80;;;;;;;9.52;61.85;96054.11;108066;1270;41812;-74
2022/03/29 03:46:28;;;;;;;16.60;12.20;;;;;;;9.49;62.43;96059.61;108084;1270;51832;-74
2022/03/29 03:49:00;;;;;;;17.10;12.20;;;;;;;9.40;62.41;96063.80;108019;1270;41665;-74
2022/03/29 03:51:31;;;;;;;18.50;13.80;;;;;;;9.33;63.06;96063.90;108024;1271;42868;-74
2022/03/29 03:54:03;;;;;;;17.70;12.90;;;;;;;9.27;63.83;96068.88;108042;1270;42545;-74
2022/03/29 03:56:34;;;;;;;16.00;11.90;;;;;;;9.20;64.06;96069.44;108072;1270;42360;-74
2022/03/29 03:59:05;;;;;;;17.80;13.20;;;;;;;9.17;64.73;96066.52;108160;1270;30141;-74
2022/03/29 04:01:37;;;;;;;13.00;10.70;;;;;;;9.11;64.20;96069.17;108112;1270;46736;-74
2022/03/29 04:04:09;;;;;;;16.90;12.20;;;;;;;8.98;64.36;96061.44;108159;1270;44777;-74
2022/03/29 04:06:40;;;;;;;14.10;10.90;;;;;;;8.94;64.46;96065.29;108046;1270;37224;-74
2022/03/29 04:09:11;;;;;;;15.60;10.30;;;;;;;8.91;64.43;96060.77;108095;1270;38783;-73
2022/03/29 04:11:42;;;;;;;14.70;11.30;;;;;;;8.87;64.46;96057.54;108117;1270;41681;-74
2022/03/29 04:14:14;;;;;;;17.50;12.10;;;;;;;8.82;64.48;96058.26;108078;1268;29594;-74
2022/03/29 04:16:45;;;;;;;14.20;11.10;;;;;;;8.80;64.48;96059.51;108061;1271;26911;-74
2022/03/29 04:19:16;;;;;;;15.80;11.10;;;;;;;8.82;64.30;96055.77;108050;1270;40655;-74
2022/03/29 04:21:48;;;;;;;14.70;10.50;;;;;;;8.82;64.47;96050.49;107992;1270;33017;-75
2022/03/29 04:24:19;;;;;;;12.40;10.00;;;;;;;8.77;64.41;96046.91;108047;1270;58609;-74
2022/03/29 04:26:51;;;;;;;14.60;11.50;;;;;;;8.66;64.67;96047.70;108046;1270;32921;-74
2022/03/29 04:29:23;;;;;;;17.70;11.50;;;;;;;8.59;64.82;96040.74;108059;1269;49172;-74
2022/03/29 04:31:54;;;;;;;14.00;10.50;;;;;;;8.54;65.03;96041.84;108000;1270;42453;-74
2022/03/29 04:34:26;;;;;;;17.10;11.30;;;;;;;8.48;65.58;96039.52;108032;1270;41544;-74
2022/03/29 04:36:59;;;;;;;15.10;11.20;;;;;;;8.39;65.60;96035.27;107996;1270;44310;-74
2022/03/29 04:39:30;;;;;;;18.20;11.10;;;;;;;8.35;65.98;96026.44;108077;1270;43023;-74
2022/03/29 04:42:02;;;;;;;17.80;12.40;;;;;;;8.43;66.30;96027.63;107922;1273;41941;-74
2022/03/29 04:44:34;;;;;;;15.10;11.50;;;;;;;8.50;66.20;96027.25;107982;1270;50842;-74
2022/03/29 04:47:07;;;;;;;16.30;11.80;;;;;;;8.45;66.51;96022.12;108058;1270;42537;-73
2022/03/29 04:49:39;;;;;;;16.90;11.80;;;;;;;8.41;66.17;96023.20;108140;1270;41398;-74
2022/03/29 04:52:12;;;;;;;16.70;11.70;;;;;;;8.48;66.19;96018.83;108100;1270;30109;-73
2022/03/29 04:54:43;;;;;;;16.60;11.10;;;;;;;8.57;66.18;96014.34;108049;1270;43122;-74
2022/03/29 04:57:14;;;;;;;15.50;11.10;;;;;;;8.69;65.95;96014.69;108124;1269;34070;-73
2022/03/29 04:59:46;;;;;;;16.70;11.60;;;;;;;8.77;65.95;96012.81;108131;1270;30491;-73
2022/03/29 05:02:17;;;;;;;15.60;10.60;;;;;;;8.84;66.08;96012.05;108142;1270;45463;-74
2022/03/29 05:04:49;;;;;;;15.50;10.10;;;;;;;9.03;66.22;96010.72;108099;1270;31561;-74
2022/03/29 05:07:23;;;;;;;16.70;11.80;;;;;;;9.28;66.04;96007.98;108135;1270;34821;-74
2022/03/29 05:09:56;;;;;;;14.20;10.80;;;;;;;9.47;65.81;96001.55;108085;1270;34014;-74
2022/03/29 05:12:28;;;;;;;15.60;11.10;;;;;;;9.59;65.62;96001.77;107896;1273;43475;-73
2022/03/29 05:15:01;;;;;;;14.70;10.50;;;;;;;9.65;65.36;96004.15;108067;1270;55307;-73
2022/03/29 05:17:34;;;;;;;14.40;9.70;;;;;;;9.77;65.17;96003.61;108034;1270;31713;-74
2022/03/29 05:20:08;;;;;;;14.60;10.00;;;;;;;9.95;65.11;96003.77;108127;1270;34799;-73
2022/03/29 05:22:45;;;;;;;12.90;9.60;;;;;;;10.16;64.66;96010.12;108124;1270;33692;-74
2022/03/29 05:25:18;;;;;;;14.90;10.50;;;;;;;10.34;64.23;96009.35;108182;1270;31190;-73
2022/03/29 05:27:50;;;;;;;13.90;10.70;;;;;;;10.38;63.60;96010.92;108111;1270;34876;-73
2022/03/29 05:30:22;;;;;;;13.50;9.40;;;;;;;10.45;63.28;96006.25;108032;1270;29300;-73
2022/03/29 05:32:57;;;;;;;18.40;13.00;;;;;;;10.64;62.95;96001.36;107966;1268;36555;-74
2022/03/29 05:35:31;;;;;;;17.30;12.20;;;;;;;10.98;62.62;96004.29;107977;1270;43732;-74
2022/03/29 05:38:04;;;;;;;15.60;11.30;;;;;;;11.37;61.98;96005.46;108097;1270;45143;-74
2022/03/29 05:40:35;;;;;;;13.10;10.20;;;;;;;11.60;61.26;96004.06;108013;1270;44267;-73
2022/03/29 05:43:12;;;;;;;13.00;10.50;;;;;;;11.83;60.68;96005.66;108128;1270;33203;-74
2022/03/29 05:45:45;;;;;;;13.10;10.50;;;;;;;12.00;60.03;96002.92;108076;1270;41089;-74
2022/03/29 05:51:04;;;;;;;12.20;9.60;;;;;;;12.05;60.01;96005.31;108030;1270;43331;-73
2022/03/29 05:53:36;;;;;;;11.90;9.20;;;;;;;11.85;60.08;96006.03;108003;1271;27743;-73
2022/03/29 05:56:08;;;;;;;12.90;10.90;;;;;;;11.71;59.84;96010.52;108113;1270;39778;-73
2022/03/29 05:58:39;;;;;;;12.70;10.20;;;;;;;11.62;59.85;96010.98;108013;1268;45669;-73
2022/03/29 06:01:10;;;;;;;14.10;10.20;;;;;;;11.47;60.01;96012.73;108092;1270;43727;-73
2022/03/29 06:03:41;;;;;;;14.50;11.30;;;;;;;11.19;60.26;96010.28;108058;1270;42985;-73
2022/03/29 06:06:14;;;;;;;14.60;10.30;;;;;;;10.97;60.68;96010.29;108010;1270;47987;-73
2022/03/29 06:08:45;;;;;;;14.80;10.20;;;;;;;10.86;60.96;96010.35;108004;1271;36646;-73
2022/03/29 06:11:16;;;;;;;14.00;10.90;;;;;;;10.76;61.29;96010.91;107983;1271;32251;-73
2022/03/29 06:13:47;;;;;;;14.20;11.00;;;;;;;10.78;61.46;96005.27;108124;1270;40563;-73
2022/03/29 06:16:20;;;;;;;14.00;10.40;;;;;;;10.94;61.46;96004.52;107925;1271;57181;-74
2022/03/29 06:18:51;;;;;;;13.10;10.10;;;;;;;11.18;61.27;96006.21;108085;1270;42739;-73
2022/03/29 06:21:24;;;;;;;14.50;10.30;;;;;;;11.38;60.98;96006.36;107964;1270;43163;-74
2022/03/29 06:23:55;;;;;;;16.10;10.80;;;;;;;11.73;60.66;96008.34;107877;1271;40768;-73
2022/03/29 06:26:27;;;;;;;14.30;10.20;;;;;;;12.11;60.26;96009.58;108079;1270;31008;-74
2022/03/29 06:28:58;;;;;;;15.40;10.60;;;;;;;12.31;59.65;96006.31;108062;1270;38806;-73
2022/03/29 06:31:29;;;;;;;18.00;11.20;;;;;;;12.43;59.04;96002.64;107994;1270;40740;-73
2022/03/29 06:34:00;;;;;;;12.40;10.30;;;;;;;12.43;58.59;96002.14;107916;1271;40220;-73
2022/03/29 06:36:31;;;;;;;13.90;10.40;;;;;;;12.50;58.45;96004.95;108041;1270;38924;-73
2022/03/29 06:39:02;;;;;;;15.80;11.00;;;;;;;12.65;58.14;96004.25;108017;1270;43205;-74
2022/03/29 06:41:34;;;;;;;13.90;10.60;;;;;;;12.86;57.80;96008.85;108100;1270;42448;-74
2022/03/29 06:44:08;;;;;;;11.80;9.70;;;;;;;13.25;57.42;96004.55;108077;1270;43009;-73
2022/03/29 06:46:41;;;;;;;15.80;10.40;;;;;;;13.55;56.67;96003.87;108119;1270;39475;-73
2022/03/29 06:49:12;;;;;;;14.80;10.90;;;;;;;13.68;56.20;96003.55;108036;1270;42367;-73
2022/03/29 06:51:44;;;;;;;15.20;10.20;;;;;;;13.84;56.25;96003.67;108165;1270;42769;-73
2022/03/29 06:54:16;;;;;;;14.60;10.70;;;;;;;13.98;55.99;96001.98;108061;1270;44671;-73
2022/03/29 06:56:46;;;;;;;11.20;8.90;;;;;;;14.10;55.50;96005.58;108185;1270;33885;-73
2022/03/29 06:59:18;;;;;;;12.00;9.80;;;;;;;13.81;54.43;96000.33;108062;1270;38079;-75
2022/03/29 07:01:48;;;;;;;12.70;9.70;;;;;;;13.24;54.76;96003.99;108118;1270;30717;-74
2022/03/29 07:04:19;;;;;;;12.20;8.70;;;;;;;13.08;55.33;96002.14;108081;1270;41981;-73
2022/03/29 07:06:50;;;;;;;13.10;9.50;;;;;;;13.05;55.54;96005.88;107997;1269;46994;-74
2022/03/29 07:12:11;;;;;;;13.80;10.60;;;;;;;12.87;55.63;96008.45;108064;1270;43747;-74
2022/03/29 07:14:42;;;;;;;12.70;10.10;;;;;;;12.83;55.62;96006.82;108071;1270;59117;-74
2022/03/29 07:17:15;;;;;;;12.90;9.00;;;;;;;12.81;55.77;96007.71;108057;1270;79904;-73
2022/03/29 07:19:47;;;;;;;13.40;9.20;;;;;;;12.72;55.99;96009.08;108190;1270;34805;-74
2022/03/29 07:22:18;;;;;;;13.70;10.50;;;;;;;12.74;56.13;96016.50;107998;1270;79286;-74
2022/03/29 07:24:48;;;;;;;14.40;10.10;;;;;;;12.79;56.23;96018.48;107976;1270;103013;-75
2022/03/29 07:27:19;;;;;;;11.90;10.20;;;;;;;12.79;55.90;96019.47;108114;1270;48740;-74
2022/03/29 07:29:52;;;;;;;15.90;10.90;;;;;;;12.77;56.21;96015.25;107897;1270;129282;-74
2022/03/29 07:32:23;;;;;;;14.70;11.80;;;;;;;12.78;56.03;96018.35;107999;1270;77957;-74
2022/03/29 07:34:54;;;;;;;19.20;12.70;;;;;;;12.63;55.77;96023.08;108047;1270;31868;-74
2022/03/29 07:37:26;;;;;;;16.50;11.10;;;;;;;12.48;56.19;96023.64;108056;1270;42344;-74
2022/03/29 07:39:57;;;;;;;14.20;8.90;;;;;;;12.26;56.55;96022.55;108093;1270;35596;-74
2022/03/29 07:42:27;;;;;;;18.10;14.30;;;;;;;11.94;57.14;96026.06;108081;1270;42779;-74
2022/03/29 07:44:58;;;;;;;21.50;15.20;;;;;;;11.77;57.58;96025.78;108052;1270;69828;-74
2022/03/29 07:47:29;;;;;;;17.60;13.10;;;;;;;11.68;57.84;96025.02;107908;1270;109949;-73
2022/03/29 07:50:01;;;;;;;22.00;14.90;;;;;;;11.56;58.62;96015.02;108042;1270;66104;-74
2022/03/29 07:52:32;;;;;;;22.30;16.90;;;;;;;11.48;58.79;96020.04;107922;1271;75086;-74
2022/03/29 07:55:04;;;;;;;22.10;14.60;;;;;;;11.48;58.77;96016.75;107964;1270;55514;-73
2022/03/29 07:57:35;;;;;;;26.10;18.20;;;;;;;11.51;59.11;96019.02;108047;1270;57865;-73
2022/03/29 08:02:54;;;;;;;22.70;16.30;;;;;;;11.75;58.95;96011.83;108026;1270;82897;-74
2022/03/29 08:05:25;;;;;;;20.50;15.60;;;;;;;11.76;58.63;96010.77;108052;1270;83451;-74
2022/03/29 08:07:58;;;;;;;22.10;16.80;;;;;;;11.71;58.63;96010.41;108108;1270;33748;-74
2022/03/29 08:10:30;;;;;;;23.00;17.40;;;;;;;11.70;59.01;96009.97;107932;1273;46480;-74
2022/03/29 08:13:03;;;;;;;25.10;17.80;;;;;;;11.65;58.92;96010.85;108020;1270;87670;-74
2022/03/29 08:15:34;;;;;;;25.40;16.80;;;;;;;11.55;59.44;96009.95;108043;1270;104318;-74
2022/03/29 08:18:05;;;;;;;25.80;16.00;;;;;;;11.41;59.33;96010.54;107956;1270;82872;-73
2022/03/29 08:20:37;;;;;;;21.30;16.10;;;;;;;11.31;59.71;96008.39;108048;1270;74422;-74
2022/03/29 08:23:11;;;;;;;21.80;16.50;;;;;;;11.24;59.69;96009.48;107951;1270;41833;-74
2022/03/29 08:25:44;;;;;;;20.30;13.40;;;;;;;11.19;59.93;96002.74;108062;1270;115388;-73
2022/03/29 08:28:16;;;;;;;26.10;18.60;;;;;;;11.16;59.97;96009.17;108101;1270;44701;-74
2022/03/29 08:30:47;;;;;;;21.50;13.20;;;;;;;11.16;60.13;96004.36;108043;1270;46697;-74
2022/03/29 08:33:20;;;;;;;14.20;8.50;;;;;;;11.10;60.12;96015.50;107992;1270;32286;-74
2022/03/29 08:35:50;;;;;;;20.60;13.40;;;;;;;11.04;60.22;96014.02;107984;1270;103379;-74
2022/03/29 08:38:22;;;;;;;22.50;15.90;;;;;;;11.02;60.37;96005.17;108078;1270;76502;-74
2022/03/29 08:40:58;;;;;;;22.50;15.50;;;;;;;11.03;60.47;96008.39;107972;1270;102375;-74
2022/03/29 08:43:31;;;;;;;24.70;17.90;;;;;;;11.04;60.46;96010.13;108062;1270;63903;-74
2022/03/29 08:46:02;;;;;;;27.60;18.50;;;;;;;11.13;60.60;96006.55;108069;1270;35241;-74
2022/03/29 08:48:33;;;;;;;25.50;18.70;;;;;;;11.11;60.85;96009.70;108015;1270;43504;-74
2022/03/29 08:51:06;;;;;;;26.30;19.10;;;;;;;11.10;60.74;96003.56;108002;1270;49978;-74
2022/03/29 08:53:37;;;;;;;25.50;17.70;;;;;;;11.21;61.01;96008.70;108090;1270;32578;-74
2022/03/29 08:56:08;;;;;;;25.40;19.00;;;;;;;11.30;60.86;96011.93;108001;1269;42407;-74
2022/03/29 08:58:39;;;;;;;25.60;19.10;;;;;;;11.41;60.52;95999.73;107976;1270;47046;-74
2022/03/29 09:01:10;;;;;;;24.80;18.90;;;;;;;11.70;60.87;96006.77;108079;1270;32487;-74
2022/03/29 09:03:41;;;;;;;21.90;18.10;;;;;;;12.15;60.65;95997.58;108045;1270;29925;-74
2022/03/29 09:06:12;;;;;;;28.90;19.20;;;;;;;12.34;59.59;95996.64;107937;1270;35223;-74
2022/03/29 09:08:47;;;;;;;23.50;17.60;;;;;;;12.36;59.51;95988.23;108072;1270;39092;-74
2022/03/29 09:11:19;;;;;;;20.50;16.70;;;;;;;12.46;59.39;95981.98;107963;1270;45947;-75
2022/03/29 09:14:04;;;;;;;20.80;16.10;;;;;;;12.75;58.97;95977.08;107992;1270;33220;-74
2022/03/29 09:16:38;;;;;;;17.40;13.30;;;;;;;13.03;58.37;95970.66;108066;1270;39454;-74
2022/03/29 09:19:09;;;;;;;23.40;16.10;;;;;;;13.11;57.67;95968.22;107993;1270;44728;-74
2022/03/29 09:21:45;;;;;;;24.60;16.30;;;;;;;13.15;57.33;95966.72;108043;1270;45918;-74
2022/03/29 09:24:18;;;;;;;20.90;15.50;;;;;;;13.26;57.25;95964.70;108029;1270;46135;-74
2022/03/29 09:26:50;;;;;;;20.90;14.40;;;;;;;13.17;56.47;95965.79;107922;1272;35792;-75
2022/03/29 09:29:23;;;;;;;17.50;14.00;;;;;;;13.14;56.47;95964.50;107986;1271;33944;-74
2022/03/29 09:32:08;;;;;;;14.00;11.00;;;;;;;13.16;56.48;95958.92;108049;1270;32341;-74
2022/03/29 09:34:41;;;;;;;18.70;11.80;;;;;;;13.10;55.80;95957.46;108040;1270;32544;-74
2022/03/29 09:37:12;;;;;;;21.50;13.80;;;;;;;12.85;55.68;95955.09;107972;1271;31047;-74
2022/03/29 09:39:48;;;;;;;17.50;13.10;;;;;;;12.59;56.36;95954.73;108056;1271;30258;-74
2022/03/29 09:42:20;;;;;;;21.90;15.80;;;;;;;12.59;56.73;95956.71;107945;1271;64099;-74
2022/03/29 09:44:53;;;;;;;17.50;12.90;;;;;;;12.61;56.60;95952.77;108021;1270;29037;-74
2022/03/29 09:47:29;;;;;;;22.90;14.40;;;;;;;12.52;56.70;95949.08;107959;1270;33645;-74
2022/03/29 09:50:05;;;;;;;16.20;10.40;;;;;;;12.49;56.88;95943.86;108055;1270;31799;-74
2022/03/29 09:52:39;;;;;;;17.10;12.30;;;;;;;12.51;56.77;95946.80;107944;1270;35154;-74
2022/03/29 09:55:16;;;;;;;14.70;11.80;;;;;;;12.46;56.42;95944.64;107997;1271;30523;-74
2022/03/29 09:57:49;;;;;;;18.40;12.10;;;;;;;12.44;56.64;95942.72;107936;1271;40202;-74
2022/03/29 10:00:36;;;;;;;18.70;13.70;;;;;;;12.53;56.49;95935.23;107951;1271;41996;-74
2022/03/29 10:03:15;;;;;;;22.20;15.30;;;;;;;12.72;56.63;95930.04;108043;1270;34031;-74
2022/03/29 10:05:53;;;;;;;20.90;14.50;;;;;;;12.82;56.74;95928.73;107923;1271;43017;-74
2022/03/29 10:11:16;;;;;;;21.30;16.30;;;;;;;13.15;56.37;95925.45;108017;1271;43716;-74
2022/03/29 10:13:47;;;;;;;21.00;14.50;;;;;;;13.39;56.47;95923.60;108057;1270;37873;-74
2022/03/29 10:16:19;;;;;;;16.70;13.00;;;;;;;13.47;55.72;95921.54;107898;1270;41825;-75
2022/03/29 10:18:49;;;;;;;81.20;45.70;;;;;;;13.30;55.63;95922.05;107841;1273;43568;-75
2022/03/29 10:21:23;;;;;;;18.70;14.40;;;;;;;13.31;55.23;95916.98;107946;1270;34881;-75
2022/03/29 10:23:54;;;;;;;17.00;13.60;;;;;;;13.35;55.32;95912.17;108010;1270;31274;-75
2022/03/29 10:26:27;;;;;;;41.10;25.40;;;;;;;13.48;55.27;95908.38;107914;1271;35021;-75
2022/03/29 10:28:58;;;;;;;61.30;35.40;;;;;;;13.55;55.03;95908.95;108036;1270;36787;-75
2022/03/29 10:31:34;;;;;;;38.30;24.10;;;;;;;13.55;54.93;95907.79;108046;1270;44105;-75
2022/03/29 10:34:17;;;;;;;29.40;18.30;;;;;;;13.61;54.86;95900.97;107898;1272;36612;-75
2022/03/29 10:37:17;;;;;;;19.90;15.10;;;;;;;13.64;54.54;95896.40;108108;1270;33383;-76
2022/03/29 10:39:57;;;;;;;21.10;14.70;;;;;;;13.61;54.65;95894.36;108080;1270;39055;-76
2022/03/29 10:42:42;;;;;;;21.10;16.10;;;;;;;13.62;54.47;95884.73;108119;1270;34927;-75
2022/03/29 10:45:19;;;;;;;19.80;14.20;;;;;;;13.54;54.84;95884.79;108043;1271;44893;-75
2022/03/29 10:48:09;;;;;;;18.40;14.30;;;;;;;13.45;54.65;95882.25;108011;1270;42288;-75
2022/03/29 10:50:58;;;;;;;17.20;13.70;;;;;;;13.52;54.88;95875.55;108045;1270;47297;-75
2022/03/29 10:53:32;;;;;;;19.60;14.10;;;;;;;13.66;54.49;95873.77;108035;1270;42681;-75
2022/03/29 10:56:30;;;;;;;19.10;13.90;;;;;;;13.69;54.51;95872.34;108152;1270;33437;-75
2022/03/29 10:59:16;;;;;;;17.60;13.80;;;;;;;13.56;54.46;95868.06;107718;1271;46050;-75
2022/03/29 11:02:07;;;;;;;19.90;15.50;;;;;;;13.49;54.56;95863.95;108048;1271;35267;-75
2022/03/29 11:04:38;;;;;;;20.60;15.20;;;;;;;13.35;54.63;95868.81;108036;1270;41920;-75
2022/03/29 11:07:14;;;;;;;18.10;15.30;;;;;;;13.25;54.81;95860.42;108056;1270;34121;-75
2022/03/29 11:09:46;;;;;;;19.00;13.80;;;;;;;13.22;55.05;95861.02;108068;1270;48907;-75
2022/03/29 11:12:39;;;;;;;20.80;15.10;;;;;;;13.25;55.18;95861.59;108136;1270;30318;-74
2022/03/29 11:15:46;;;;;;;20.10;14.50;;;;;;;13.12;55.51;95860.67;108100;1270;40479;-74
2022/03/29 11:18:43;;;;;;;20.20;13.80;;;;;;;13.03;56.18;95857.46;108011;1271;40328;-74
2022/03/29 11:21:31;;;;;;;18.60;14.20;;;;;;;13.01;56.02;95850.33;108065;1270;43548;-74
2022/03/29 11:24:03;;;;;;;19.40;15.10;;;;;;;13.09;56.22;95847.39;108119;1270;43392;-74
2022/03/29 11:26:36;;;;;;;31.70;23.40;;;;;;;13.25;56.15;95841.57;108093;1268;35159;-75
2022/03/29 11:29:09;;;;;;;27.00;19.10;;;;;;;13.46;56.00;95837.23;108068;1270;30900;-75
2022/03/29 11:31:41;;;;;;;19.20;14.10;;;;;;;13.73;55.87;95834.21;108042;1270;39032;-75
2022/03/29 11:34:12;;;;;;;22.50;16.50;;;;;;;13.83;55.43;95828.25;108035;1270;45209;-74
2022/03/29 11:36:43;;;;;;;20.10;14.40;;;;;;;13.85;55.18;95824.36;108052;1270;42568;-75
2022/03/29 11:39:28;;;;;;;19.40;15.20;;;;;;;13.78;55.06;95826.59;108115;1270;38688;-75
2022/03/29 11:41:59;;;;;;;22.00;15.40;;;;;;;13.87;55.42;95820.33;108048;1270;42777;-75
2022/03/29 11:44:31;;;;;;;21.90;16.20;;;;;;;13.97;54.85;95811.78;108027;1270;34442;-74
2022/03/29 11:47:01;;;;;;;22.20;16.40;;;;;;;13.95;54.56;95810.15;108069;1270;33645;-75
2022/03/29 11:49:42;;;;;;;24.60;17.60;;;;;;;13.96;54.67;95805.25;107983;1271;33200;-74
2022/03/29 11:52:14;;;;;;;20.30;15.10;;;;;;;14.15;55.03;95802.61;108073;1270;32681;-74
2022/03/29 11:54:48;;;;;;;22.50;16.20;;;;;;;14.37;54.54;95797.49;108069;1270;40473;-74